Time;durP1;ratioP1;P1;durP2;ratioP2;P2;SDS_P1;SDS_P2;PMS_P1;PMS_P2;Temp;Humidity;BMP_temperature;BMP_pressure;BME280_temperature;BME280_humidity;BME280_pressure;Samples;Min_cycle;Max_cycle;Signal;HPM_P1;HPM_P2
2023/06/25 00:00:59;;;;;;;4.90;4.40;;;23.90;62.30;;;;;;4987270;28;20200;-75
2023/06/25 00:03:26;;;;;;;5.00;4.33;;;23.90;62.50;;;;;;4995321;28;20203;-75
2023/06/25 00:05:53;;;;;;;5.10;4.50;;;23.90;62.40;;;;;;4994641;28;20222;-74
2023/06/25 00:08:22;;;;;;;4.70;4.30;;;23.90;62.60;;;;;;5014563;28;20234;-75
2023/06/25 00:10:50;;;;;;;4.53;4.13;;;23.90;63.00;;;;;;5014445;28;20229;-74
2023/06/25 00:13:16;;;;;;;4.90;4.40;;;23.90;62.90;;;;;;5014431;28;20318;-74
2023/06/25 00:15:46;;;;;;;5.53;5.03;;;23.80;63.10;;;;;;5002881;28;20203;-74
2023/06/25 00:18:13;;;;;;;5.13;4.73;;;23.80;63.20;;;;;;5011764;28;20221;-75
2023/06/25 00:20:40;;;;;;;5.20;4.70;;;23.80;63.20;;;;;;5014190;28;20255;-74
2023/06/25 00:23:13;;;;;;;4.43;4.03;;;23.80;63.50;;;;;;4996362;28;20305;-74
2023/06/25 00:25:40;;;;;;;5.37;4.27;;;23.80;63.50;;;;;;5011556;28;20211;-74
2023/06/25 00:28:08;;;;;;;4.70;4.30;;;23.70;63.00;;;;;;5011291;28;20213;-75
2023/06/25 00:30:35;;;;;;;4.60;3.90;;;23.70;63.00;;;;;;4995718;28;20611;-75
2023/06/25 00:33:03;;;;;;;4.73;4.33;;;23.70;63.30;;;;;;4995573;28;20202;-75
2023/06/25 00:36:10;;;;;;;5.10;4.60;;;23.60;63.40;;;;;;5009435;28;20192;-74
2023/06/25 00:38:38;;;;;;;4.70;4.23;;;23.60;63.80;;;;;;4983408;28;20238;-74
2023/06/25 00:41:10;;;;;;;4.80;4.30;;;23.60;63.50;;;;;;4997094;28;20211;-74
2023/06/25 00:43:40;;;;;;;5.40;4.23;;;23.50;63.30;;;;;;5016213;28;20210;-73
2023/06/25 00:46:15;;;;;;;4.67;4.27;;;23.40;63.60;;;;;;5010937;28;20212;-72
2023/06/25 00:48:47;;;;;;;4.93;4.30;;;23.40;63.70;;;;;;5001089;28;20233;-74
2023/06/25 00:51:15;;;;;;;5.03;4.00;;;23.40;63.80;;;;;;4994910;28;20223;-74
2023/06/25 00:53:42;;;;;;;4.57;4.17;;;23.40;63.90;;;;;;5011892;28;20249;-76
2023/06/25 00:56:12;;;;;;;4.87;4.40;;;23.40;64.20;;;;;;5011657;28;20202;-74
2023/06/25 00:58:40;;;;;;;5.20;4.70;;;23.30;64.70;;;;;;4993982;28;20200;-74
2023/06/25 01:01:15;;;;;;;4.80;4.37;;;23.30;64.90;;;;;;4977142;28;20229;-75
2023/06/25 01:03:54;;;;;;;5.03;4.53;;;23.30;65.20;;;;;;4996264;28;20559;-74
2023/06/25 01:06:30;;;;;;;5.00;4.60;;;23.30;65.40;;;;;;4994732;28;20231;-75
2023/06/25 01:09:00;;;;;;;7.93;4.50;;;23.20;65.40;;;;;;5001515;28;20211;-74
2023/06/25 01:11:28;;;;;;;4.97;4.50;;;23.10;65.10;;;;;;5013231;28;20237;-74
2023/06/25 01:13:54;;;;;;;5.17;4.37;;;23.10;65.40;;;;;;4995620;28;20214;-74
2023/06/25 01:16:22;;;;;;;5.53;4.50;;;23.10;66.30;;;;;;5011865;28;20199;-75
2023/06/25 01:18:52;;;;;;;5.80;4.13;;;23.00;65.30;;;;;;5011085;28;20675;-74
2023/06/25 01:21:23;;;;;;;4.83;4.13;;;23.00;65.40;;;;;;5008437;28;20207;-73
2023/06/25 01:23:54;;;;;;;4.77;4.27;;;23.00;65.40;;;;;;5010643;28;20199;-75
2023/06/25 01:26:21;;;;;;;4.57;4.20;;;22.90;65.20;;;;;;5012032;28;20227;-74
2023/06/25 01:28:55;;;;;;;4.90;4.37;;;22.90;65.20;;;;;;4993556;28;20231;-75
2023/06/25 01:31:30;;;;;;;5.70;4.20;;;22.90;65.60;;;;;;4981761;28;20348;-75
2023/06/25 01:33:57;;;;;;;5.27;4.77;;;22.80;65.40;;;;;;5005103;28;20258;-75
2023/06/25 01:36:30;;;;;;;4.50;4.03;;;22.80;65.40;;;;;;5012390;28;20274;-75
2023/06/25 01:38:58;;;;;;;5.10;4.60;;;22.80;65.50;;;;;;5008035;28;20200;-74
2023/06/25 01:41:27;;;;;;;7.03;4.80;;;22.70;65.50;;;;;;5009088;28;20219;-75
2023/06/25 01:43:54;;;;;;;5.10;4.23;;;22.70;65.50;;;;;;4994392;28;20203;-75
2023/06/25 01:46:21;;;;;;;4.67;4.17;;;22.70;65.70;;;;;;4992999;28;20228;-76
2023/06/25 01:48:49;;;;;;;5.83;5.03;;;22.70;65.60;;;;;;4994543;28;20579;-74
2023/06/25 01:51:20;;;;;;;4.80;4.30;;;22.60;65.60;;;;;;4993137;28;20234;-75
2023/06/25 01:53:47;;;;;;;5.10;4.60;;;22.60;66.00;;;;;;5005924;28;20644;-74
2023/06/25 01:56:15;;;;;;;5.13;4.63;;;22.60;66.00;;;;;;4993965;28;20223;-76
2023/06/25 01:58:44;;;;;;;5.37;4.40;;;22.60;66.20;;;;;;4993195;28;20207;-75
2023/06/25 02:01:11;;;;;;;5.47;4.97;;;22.50;66.30;;;;;;5006904;28;20242;-75
2023/06/25 02:03:37;;;;;;;5.23;4.73;;;22.50;66.30;;;;;;5012928;28;20234;-74
2023/06/25 02:06:08;;;;;;;6.93;4.63;;;22.50;66.20;;;;;;5011787;28;20229;-74
2023/06/25 02:08:35;;;;;;;5.60;4.67;;;22.50;66.30;;;;;;5012370;28;20285;-74
2023/06/25 02:11:02;;;;;;;4.87;4.37;;;22.40;66.10;;;;;;5014081;28;20201;-75
2023/06/25 02:13:31;;;;;;;4.70;4.30;;;22.50;66.10;;;;;;5032520;28;20219;-75
2023/06/25 02:15:59;;;;;;;5.60;4.80;;;22.40;66.10;;;;;;5032608;28;20187;-74
2023/06/25 02:18:26;;;;;;;9.40;4.30;;;22.40;66.30;;;;;;5032475;28;20217;-75
2023/06/25 02:20:56;;;;;;;4.43;3.93;;;22.40;66.10;;;;;;5028135;28;20218;-75
2023/06/25 02:23:22;;;;;;;4.40;4.00;;;22.40;66.20;;;;;;5012887;28;20203;-75
2023/06/25 02:25:50;;;;;;;4.90;4.40;;;22.40;66.00;;;;;;5011977;28;20246;-75
2023/06/25 02:28:19;;;;;;;4.70;4.20;;;22.40;65.90;;;;;;5012860;28;20214;-75
2023/06/25 02:30:47;;;;;;;5.00;4.40;;;22.40;66.00;;;;;;4977007;28;20267;-74
2023/06/25 02:33:14;;;;;;;5.03;4.53;;;22.30;66.00;;;;;;5012311;28;20199;-74
2023/06/25 02:35:43;;;;;;;5.73;4.50;;;22.30;66.20;;;;;;4994062;28;20214;-75
2023/06/25 02:38:10;;;;;;;5.13;4.17;;;22.30;66.30;;;;;;4995230;28;20302;-75
2023/06/25 02:40:36;;;;;;;6.60;4.83;;;22.30;66.30;;;;;;5001702;28;20200;-74
2023/06/25 02:43:09;;;;;;;5.20;4.63;;;22.30;66.40;;;;;;5012522;28;20660;-73
2023/06/25 02:45:36;;;;;;;4.60;4.20;;;22.20;66.60;;;;;;5012207;28;20691;-73
2023/06/25 02:48:08;;;;;;;5.00;4.47;;;22.20;66.40;;;;;;5014491;28;20330;-75
2023/06/25 02:50:35;;;;;;;6.40;4.43;;;22.20;66.40;;;;;;5004206;28;20220;-75
2023/06/25 02:53:02;;;;;;;5.30;4.80;;;22.20;66.40;;;;;;4961386;28;20214;-74
2023/06/25 02:55:31;;;;;;;5.77;4.63;;;22.20;66.70;;;;;;4997007;28;20556;-75
2023/06/25 02:57:58;;;;;;;7.03;4.27;;;22.10;66.40;;;;;;5010778;28;20210;-75
2023/06/25 03:00:25;;;;;;;5.47;4.90;;;22.10;66.20;;;;;;5006245;28;20827;-74
2023/06/25 03:02:57;;;;;;;8.30;4.90;;;22.10;66.30;;;;;;4997605;28;20594;-74
2023/06/25 03:05:26;;;;;;;6.20;4.60;;;22.00;66.40;;;;;;4996161;28;20252;-75
2023/06/25 03:07:58;;;;;;;6.40;4.47;;;22.00;66.40;;;;;;4996326;28;20936;-75
2023/06/25 03:10:31;;;;;;;7.00;4.90;;;22.00;66.80;;;;;;5002884;28;20300;-73
2023/06/25 03:12:58;;;;;;;8.77;4.80;;;22.00;66.70;;;;;;5014187;28;20191;-75
2023/06/25 03:15:25;;;;;;;5.47;4.47;;;21.90;66.40;;;;;;5019598;28;20207;-75
2023/06/25 03:17:55;;;;;;;7.17;4.93;;;21.90;66.60;;;;;;5023713;28;20239;-74
2023/06/25 03:20:22;;;;;;;5.97;4.33;;;21.90;66.60;;;;;;5005640;28;20206;-75
2023/06/25 03:22:50;;;;;;;5.30;4.27;;;21.90;66.60;;;;;;4995919;28;20666;-74
2023/06/25 03:25:19;;;;;;;7.53;4.60;;;21.90;67.40;;;;;;4981981;28;20231;-75
2023/06/25 03:27:47;;;;;;;10.27;4.20;;;21.80;66.50;;;;;;4982679;28;20235;-75
2023/06/25 03:30:15;;;;;;;6.87;5.20;;;21.80;66.40;;;;;;5013721;28;20225;-74
2023/06/25 03:32:44;;;;;;;7.60;4.17;;;21.80;66.30;;;;;;5012875;28;20210;-74
2023/06/25 03:35:11;;;;;;;8.97;5.03;;;21.80;66.40;;;;;;5014914;28;20214;-75
2023/06/25 03:37:38;;;;;;;7.80;5.23;;;21.70;66.30;;;;;;5014396;28;20310;-76
2023/06/25 03:40:10;;;;;;;9.27;5.23;;;21.80;66.60;;;;;;5011951;28;20253;-75
2023/06/25 03:42:37;;;;;;;10.07;4.50;;;21.70;66.30;;;;;;4996548;28;20196;-74
2023/06/25 03:45:08;;;;;;;6.90;4.63;;;21.70;66.30;;;;;;5000069;28;20291;-75
2023/06/25 03:47:34;;;;;;;6.97;4.30;;;21.70;66.30;;;;;;5012072;28;20219;-73
2023/06/25 03:50:02;;;;;;;8.67;4.73;;;21.70;66.40;;;;;;5000581;28;20223;-75
2023/06/25 03:52:29;;;;;;;8.20;5.13;;;21.70;66.70;;;;;;5007226;28;20239;-74
2023/06/25 03:54:56;;;;;;;8.90;4.43;;;21.70;66.80;;;;;;5008882;28;20203;-74
2023/06/25 03:57:24;;;;;;;9.40;4.30;;;21.70;66.60;;;;;;5003420;28;20228;-74
2023/06/25 03:59:51;;;;;;;8.57;4.63;;;21.70;66.90;;;;;;5007835;28;20249;-74
2023/06/25 04:02:18;;;;;;;8.07;4.40;;;21.70;67.00;;;;;;5012480;28;20231;-75
2023/06/25 04:04:45;;;;;;;10.77;4.17;;;21.70;66.90;;;;;;5014238;28;20192;-75
2023/06/25 04:07:12;;;;;;;9.60;5.00;;;21.70;66.80;;;;;;5013578;28;20587;-75
2023/06/25 04:09:38;;;;;;;10.33;4.43;;;21.70;67.50;;;;;;5013791;28;20301;-76
2023/06/25 04:12:06;;;;;;;8.57;4.97;;;21.70;66.70;;;;;;5005869;28;20207;-75
2023/06/25 04:14:34;;;;;;;9.63;4.17;;;21.70;66.70;;;;;;4997567;28;20238;-74
2023/06/25 04:17:01;;;;;;;12.53;4.80;;;21.70;66.90;;;;;;5001673;28;20199;-76
2023/06/25 04:19:29;;;;;;;7.13;4.80;;;21.70;66.80;;;;;;5013882;28;20338;-76
2023/06/25 04:21:56;;;;;;;15.37;5.40;;;21.70;67.00;;;;;;4987094;28;20249;-75
2023/06/25 04:24:22;;;;;;;12.73;5.17;;;21.80;67.30;;;;;;5014491;28;20223;-75
2023/06/25 04:26:49;;;;;;;6.63;4.87;;;21.70;67.40;;;;;;5011692;28;20242;-75
2023/06/25 04:29:16;;;;;;;10.90;4.60;;;21.70;67.40;;;;;;4994848;28;20207;-75
2023/06/25 04:31:46;;;;;;;9.50;5.10;;;21.70;67.40;;;;;;5012264;28;20774;-75
2023/06/25 04:34:13;;;;;;;7.27;5.10;;;21.70;67.60;;;;;;5014006;28;20634;-73
2023/06/25 04:36:39;;;;;;;5.60;5.00;;;21.80;68.20;;;;;;5003920;28;20203;-75
2023/06/25 04:39:06;;;;;;;6.80;4.50;;;21.80;68.20;;;;;;4994614;28;20203;-75
2023/06/25 04:41:33;;;;;;;6.00;4.97;;;21.80;68.40;;;;;;4995657;28;20208;-74
2023/06/25 04:44:00;;;;;;;8.10;4.90;;;21.80;68.70;;;;;;5002623;28;20579;-74
2023/06/25 04:46:27;;;;;;;9.33;5.33;;;21.90;68.60;;;;;;5012968;28;20234;-75
2023/06/25 04:48:55;;;;;;;11.23;5.17;;;21.90;68.60;;;;;;5006319;28;20325;-74
2023/06/25 04:51:22;;;;;;;14.40;5.90;;;22.00;68.50;;;;;;4981422;28;20238;-74
2023/06/25 04:53:50;;;;;;;20.03;6.63;;;22.00;69.10;;;;;;4991345;28;20226;-75
2023/06/25 04:56:17;;;;;;;16.67;7.13;;;22.00;69.30;;;;;;5009896;28;20211;-75
2023/06/25 04:58:44;;;;;;;12.20;5.80;;;22.10;69.90;;;;;;4997418;28;20379;-75
2023/06/25 05:01:11;;;;;;;11.27;5.87;;;22.20;70.50;;;;;;5004961;28;20317;-74
2023/06/25 05:03:38;;;;;;;19.90;6.37;;;22.20;69.90;;;;;;4994984;28;20231;-74
2023/06/25 05:06:06;;;;;;;9.60;5.73;;;22.20;69.80;;;;;;5013604;28;20777;-75
2023/06/25 05:08:33;;;;;;;8.73;5.03;;;22.30;70.00;;;;;;5000033;28;20672;-74
2023/06/25 05:11:00;;;;;;;7.60;5.00;;;22.40;70.40;;;;;;4994510;28;20210;-74
2023/06/25 05:13:29;;;;;;;7.93;4.87;;;22.40;70.20;;;;;;5013368;28;20207;-75
2023/06/25 05:15:59;;;;;;;5.37;4.87;;;22.50;70.20;;;;;;4997141;28;20203;-75
2023/06/25 05:18:26;;;;;;;6.13;5.03;;;22.60;69.90;;;;;;5006937;28;20231;-75
2023/06/25 05:20:52;;;;;;;5.97;5.10;;;22.60;69.50;;;;;;5003897;28;20200;-74
2023/06/25 05:23:21;;;;;;;4.40;4.00;;;22.70;69.60;;;;;;5011880;28;20207;-75
2023/06/25 05:25:48;;;;;;;5.37;4.87;;;22.80;69.30;;;;;;5011989;28;20195;-75
2023/06/25 05:28:14;;;;;;;5.13;4.63;;;22.90;69.80;;;;;;4997372;28;20223;-74
2023/06/25 05:30:41;;;;;;;6.07;5.00;;;22.90;69.20;;;;;;4993655;28;20231;-74
2023/06/25 05:33:08;;;;;;;5.30;4.87;;;23.00;68.80;;;;;;5012593;28;20203;-73
2023/06/25 05:35:35;;;;;;;5.83;4.60;;;23.00;68.90;;;;;;5013453;28;20231;-74
2023/06/25 05:38:02;;;;;;;6.20;4.87;;;23.10;68.60;;;;;;5013174;28;20225;-76
2023/06/25 05:40:30;;;;;;;4.60;4.13;;;23.20;68.50;;;;;;4995078;28;20663;-75
2023/06/25 05:42:57;;;;;;;5.30;4.83;;;23.30;68.70;;;;;;4997990;28;20204;-75
2023/06/25 05:45:24;;;;;;;7.63;4.47;;;23.40;68.90;;;;;;5004702;28;20294;-76
2023/06/25 05:47:51;;;;;;;6.00;4.77;;;23.40;68.70;;;;;;5012145;28;20226;-74
2023/06/25 05:50:18;;;;;;;5.33;4.60;;;23.50;68.90;;;;;;5013409;28;20238;-75
2023/06/25 05:52:45;;;;;;;4.80;4.40;;;23.60;68.40;;;;;;5014563;28;20222;-75
2023/06/25 05:55:11;;;;;;;5.50;4.57;;;23.70;68.10;;;;;;5012136;28;20221;-74
2023/06/25 05:57:40;;;;;;;6.03;4.97;;;23.70;67.30;;;;;;5000048;28;20282;-74
2023/06/25 06:00:09;;;;;;;5.00;4.50;;;23.80;66.20;;;;;;4993721;28;20194;-74
2023/06/25 06:02:36;;;;;;;7.03;4.33;;;23.90;65.20;;;;;;4986715;28;20678;-74
2023/06/25 06:05:03;;;;;;;5.60;4.97;;;23.90;65.20;;;;;;5012590;28;20238;-75
2023/06/25 06:07:30;;;;;;;6.50;4.50;;;24.10;65.30;;;;;;4999449;28;20227;-74
2023/06/25 06:09:58;;;;;;;5.23;4.73;;;24.10;64.80;;;;;;4993040;28;20245;-76
2023/06/25 06:12:25;;;;;;;5.43;4.57;;;24.20;65.10;;;;;;4995479;28;20210;-74
2023/06/25 06:14:53;;;;;;;5.10;4.60;;;24.30;64.90;;;;;;4998587;28;20233;-75
2023/06/25 06:17:20;;;;;;;6.20;4.93;;;24.30;64.80;;;;;;4992701;28;20184;-75
2023/06/25 06:19:46;;;;;;;5.07;4.60;;;24.40;64.90;;;;;;4993677;28;20209;-75
2023/06/25 06:22:14;;;;;;;4.93;4.47;;;24.50;64.80;;;;;;5003086;28;20223;-74
2023/06/25 06:24:41;;;;;;;5.27;4.70;;;24.60;64.80;;;;;;5015992;28;20255;-75
2023/06/25 06:27:09;;;;;;;5.00;4.43;;;24.70;64.50;;;;;;5016834;28;20237;-73
2023/06/25 06:29:36;;;;;;;5.80;4.40;;;24.70;64.20;;;;;;5016502;28;20301;-74
2023/06/25 06:32:05;;;;;;;4.67;4.27;;;24.90;64.10;;;;;;5015347;28;20572;-75
2023/06/25 06:34:32;;;;;;;4.57;4.10;;;24.90;63.80;;;;;;5014050;28;20203;-71
2023/06/25 06:36:59;;;;;;;4.57;4.03;;;25.00;63.20;;;;;;4997102;28;20206;-75
2023/06/25 06:39:25;;;;;;;4.97;4.47;;;25.00;62.90;;;;;;4998946;28;20671;-75
2023/06/25 06:41:52;;;;;;;5.13;4.17;;;25.10;63.00;;;;;;5011154;28;20202;-75
2023/06/25 06:44:20;;;;;;;5.37;4.73;;;25.10;62.70;;;;;;4996720;28;20297;-76
2023/06/25 06:46:47;;;;;;;6.03;4.40;;;25.20;62.60;;;;;;4996401;28;20243;-76
2023/06/25 06:49:16;;;;;;;5.03;4.53;;;25.30;62.30;;;;;;4996645;28;20258;-76
2023/06/25 06:51:43;;;;;;;7.23;4.20;;;25.40;61.80;;;;;;5000530;28;20226;-75
2023/06/25 06:54:10;;;;;;;4.60;4.20;;;25.50;62.20;;;;;;5015366;28;20215;-74
2023/06/25 06:56:37;;;;;;;4.40;4.10;;;25.50;62.00;;;;;;5012858;28;20207;-72
2023/06/25 06:59:03;;;;;;;4.57;4.17;;;25.60;61.80;;;;;;5007303;28;20717;-71
2023/06/25 07:01:30;;;;;;;6.90;4.40;;;25.70;61.50;;;;;;4999004;28;20250;-71
2023/06/25 07:03:57;;;;;;;7.03;4.10;;;25.80;60.80;;;;;;5015788;28;20207;-72
2023/06/25 07:06:25;;;;;;;5.63;4.27;;;25.90;60.50;;;;;;5011469;28;20667;-72
2023/06/25 07:08:52;;;;;;;4.63;4.20;;;26.00;60.30;;;;;;5007698;28;20215;-72
2023/06/25 07:11:19;;;;;;;5.53;4.00;;;26.10;59.40;;;;;;5014963;28;20217;-71
2023/06/25 07:13:47;;;;;;;5.07;4.07;;;26.20;59.50;;;;;;5002657;28;20205;-73
2023/06/25 07:16:14;;;;;;;4.50;3.90;;;26.40;59.50;;;;;;5014359;28;20225;-73
2023/06/25 07:18:40;;;;;;;4.60;4.13;;;26.50;59.30;;;;;;5004055;28;20318;-72
2023/06/25 07:21:08;;;;;;;4.60;4.20;;;26.60;58.70;;;;;;4996124;28;20720;-73
2023/06/25 07:23:37;;;;;;;4.87;4.47;;;26.70;57.50;;;;;;4995982;28;20235;-75
2023/06/25 07:26:04;;;;;;;6.47;4.70;;;26.80;57.70;;;;;;5000925;28;20237;-75
2023/06/25 07:28:31;;;;;;;7.03;4.40;;;26.90;57.50;;;;;;5014446;28;20220;-76
2023/06/25 07:30:58;;;;;;;4.83;4.30;;;27.00;57.60;;;;;;4998101;28;20694;-73
2023/06/25 07:33:25;;;;;;;5.00;4.50;;;27.10;57.70;;;;;;5013192;28;20210;-74
2023/06/25 07:35:51;;;;;;;5.23;4.60;;;27.10;57.00;;;;;;5014886;28;20227;-73
2023/06/25 07:38:18;;;;;;;5.20;4.63;;;27.30;57.20;;;;;;5002436;28;20212;-73
2023/06/25 07:40:46;;;;;;;4.67;3.93;;;27.40;57.00;;;;;;4995567;28;20624;-73
2023/06/25 07:43:13;;;;;;;6.80;4.30;;;27.50;56.60;;;;;;5009624;28;20648;-74
2023/06/25 07:45:40;;;;;;;4.93;4.07;;;27.60;56.70;;;;;;5014969;28;20215;-74
2023/06/25 07:48:07;;;;;;;4.70;4.20;;;27.70;56.50;;;;;;5014626;28;20234;-74
2023/06/25 07:50:34;;;;;;;4.70;4.30;;;27.80;56.70;;;;;;5015397;28;20214;-74
2023/06/25 07:53:01;;;;;;;4.43;4.00;;;27.90;55.70;;;;;;5002460;28;20596;-74
2023/06/25 07:55:28;;;;;;;5.20;4.37;;;28.00;55.90;;;;;;4996901;28;20208;-73
2023/06/25 07:57:56;;;;;;;5.27;4.77;;;28.10;55.40;;;;;;4994922;28;20227;-74
2023/06/25 08:00:23;;;;;;;5.33;4.50;;;28.10;54.80;;;;;;4995238;28;20672;-73
2023/06/25 08:02:49;;;;;;;5.47;4.70;;;28.20;54.40;;;;;;5005903;28;20585;-73
2023/06/25 08:05:16;;;;;;;5.50;4.17;;;28.40;54.40;;;;;;5014643;28;20230;-75
2023/06/25 08:07:43;;;;;;;5.23;4.77;;;28.50;54.10;;;;;;5003029;28;20581;-75
2023/06/25 08:10:10;;;;;;;5.17;4.67;;;28.60;54.00;;;;;;5010272;28;20245;-73
2023/06/25 08:12:37;;;;;;;4.73;4.33;;;28.60;53.40;;;;;;4974485;28;20725;-76
2023/06/25 08:15:06;;;;;;;5.37;4.23;;;28.70;53.00;;;;;;5014519;28;20241;-75
2023/06/25 08:17:33;;;;;;;4.80;4.30;;;28.80;52.20;;;;;;5007105;28;20273;-75
2023/06/25 08:20:00;;;;;;;4.73;4.30;;;28.90;52.10;;;;;;5009912;28;20215;-74
2023/06/25 08:22:27;;;;;;;4.83;4.30;;;29.00;52.20;;;;;;5000551;28;20223;-76
2023/06/25 08:24:55;;;;;;;5.00;4.37;;;29.10;50.90;;;;;;5012826;28;20810;-75
2023/06/25 08:27:22;;;;;;;4.67;4.27;;;29.20;50.70;;;;;;5007753;28;20235;-74
2023/06/25 08:29:48;;;;;;;4.70;4.30;;;29.30;51.50;;;;;;4995036;28;20711;-75
2023/06/25 08:32:17;;;;;;;5.30;4.80;;;29.40;49.70;;;;;;5006619;28;20666;-75
2023/06/25 08:34:43;;;;;;;5.33;4.83;;;29.40;49.30;;;;;;5014307;28;20194;-74
2023/06/25 08:37:10;;;;;;;5.10;4.47;;;29.50;48.80;;;;;;5004513;28;20203;-73
2023/06/25 08:39:37;;;;;;;5.33;4.83;;;29.60;48.60;;;;;;5011073;28;20213;-74
2023/06/25 08:42:05;;;;;;;5.13;4.63;;;29.70;48.30;;;;;;4999224;28;20207;-75
2023/06/25 08:44:31;;;;;;;5.20;4.23;;;29.70;47.40;;;;;;4995273;28;20231;-75
2023/06/25 08:46:59;;;;;;;6.00;4.63;;;29.80;47.20;;;;;;5012297;28;20206;-75
2023/06/25 08:49:30;;;;;;;5.33;4.50;;;29.90;46.50;;;;;;4995799;28;20215;-75
2023/06/25 08:51:59;;;;;;;5.07;4.57;;;29.90;44.60;;;;;;5013263;28;20655;-76
2023/06/25 08:54:27;;;;;;;4.93;4.43;;;30.10;44.20;;;;;;5009603;28;20226;-75
2023/06/25 08:56:53;;;;;;;5.03;4.53;;;30.10;45.00;;;;;;5006097;28;20220;-74
2023/06/25 08:59:20;;;;;;;5.10;4.60;;;30.20;44.50;;;;;;5009677;28;20195;-75
2023/06/25 09:01:47;;;;;;;4.77;4.37;;;30.40;44.70;;;;;;5012700;28;20223;-74
2023/06/25 09:04:14;;;;;;;5.33;4.83;;;30.40;43.90;;;;;;4996944;28;20192;-74
2023/06/25 09:06:42;;;;;;;5.37;4.87;;;30.50;43.50;;;;;;5006198;28;20267;-74
2023/06/25 09:09:11;;;;;;;5.63;4.80;;;30.60;43.50;;;;;;5002182;28;20322;-76
2023/06/25 09:11:41;;;;;;;4.77;4.37;;;30.70;43.40;;;;;;4999447;28;20210;-76
2023/06/25 09:14:08;;;;;;;5.67;4.60;;;30.80;42.80;;;;;;5002202;28;20755;-75
2023/06/25 09:16:46;;;;;;;5.33;4.67;;;30.80;41.70;;;;;;4993748;28;20290;-74
2023/06/25 09:19:18;;;;;;;5.20;4.70;;;30.90;40.60;;;;;;5009441;28;20223;-74
2023/06/25 09:21:46;;;;;;;5.27;4.60;;;31.00;40.80;;;;;;5012593;28;20594;-74
2023/06/25 09:24:15;;;;;;;5.07;4.57;;;31.10;41.20;;;;;;5013261;28;20269;-73
2023/06/25 09:26:47;;;;;;;4.83;4.43;;;31.10;40.40;;;;;;5013188;28;20719;-69
2023/06/25 09:29:14;;;;;;;4.97;4.47;;;31.10;37.30;;;;;;5007259;28;20226;-69
2023/06/25 09:31:43;;;;;;;5.00;4.60;;;31.10;39.00;;;;;;5012461;28;20203;-69
2023/06/25 09:34:10;;;;;;;4.57;4.17;;;31.20;39.70;;;;;;5008614;28;20294;-69
2023/06/25 09:36:37;;;;;;;4.40;4.00;;;31.30;39.10;;;;;;5004452;28;20298;-70
2023/06/25 09:39:08;;;;;;;5.07;4.13;;;31.40;38.30;;;;;;4998620;28;20314;-70
2023/06/25 09:41:37;;;;;;;5.50;4.47;;;31.50;37.90;;;;;;4994342;28;20191;-70
2023/06/25 09:44:06;;;;;;;4.50;4.10;;;31.50;36.60;;;;;;4994966;28;20241;-70
2023/06/25 09:46:35;;;;;;;4.50;4.10;;;31.60;37.30;;;;;;4993192;28;20240;-70
2023/06/25 09:49:02;;;;;;;4.17;3.77;;;31.60;35.10;;;;;;5005909;28;20226;-69
2023/06/25 09:51:41;;;;;;;4.60;4.20;;;31.50;35.90;;;;;;5009150;28;20285;-73
2023/06/25 09:54:17;;;;;;;5.37;4.20;;;31.50;36.30;;;;;;5014982;28;20206;-75
2023/06/25 09:56:49;;;;;;;5.77;4.60;;;31.60;37.90;;;;;;5026064;28;20273;-76
2023/06/25 09:59:17;;;;;;;4.73;4.33;;;31.70;37.60;;;;;;4993861;28;20240;-77
2023/06/25 10:01:47;;;;;;;4.67;4.20;;;31.80;39.00;;;;;;4981669;28;20254;-70
2023/06/25 10:04:14;;;;;;;4.40;4.00;;;31.90;38.10;;;;;;5028537;28;20201;-71
2023/06/25 10:06:41;;;;;;;5.73;4.20;;;32.00;38.10;;;;;;5032100;28;20249;-78
2023/06/25 10:09:11;;;;;;;4.17;3.77;;;32.10;34.40;;;;;;5012666;28;20581;-79
2023/06/25 10:11:49;;;;;;;3.60;3.30;;;31.90;33.20;;;;;;5008896;28;20200;-75
2023/06/25 10:14:16;;;;;;;4.13;3.73;;;31.90;33.40;;;;;;5007664;28;20224;-77
2023/06/25 10:16:54;;;;;;;5.00;3.90;;;32.00;34.60;;;;;;5012047;28;20620;-73
2023/06/25 10:19:25;;;;;;;4.30;3.90;;;32.10;35.40;;;;;;4976489;28;20583;-75
2023/06/25 10:22:00;;;;;;;4.37;3.97;;;32.20;36.50;;;;;;4998594;28;20224;-74
2023/06/25 10:24:37;;;;;;;4.20;3.83;;;32.40;35.60;;;;;;5013052;28;20219;-75
2023/06/25 10:27:05;;;;;;;4.37;3.07;;;32.50;34.80;;;;;;5009058;28;20230;-73
2023/06/25 10:29:50;;;;;;;3.73;3.43;;;32.60;34.50;;;;;;5002874;28;20226;-74
2023/06/25 10:32:20;;;;;;;3.80;3.50;;;32.70;30.30;;;;;;5008424;28;21427;-75
2023/06/25 10:34:53;;;;;;;4.77;3.93;;;32.70;32.20;;;;;;5011477;28;20220;-72
2023/06/25 10:37:28;;;;;;;3.93;3.57;;;32.60;29.70;;;;;;5011597;28;20197;-72
2023/06/25 10:40:03;;;;;;;4.17;3.83;;;32.50;29.60;;;;;;5005739;28;20205;-76
2023/06/25 10:42:35;;;;;;;4.10;3.70;;;32.50;32.60;;;;;;4995352;28;20233;-74
2023/06/25 10:45:02;;;;;;;4.10;3.70;;;32.60;32.60;;;;;;5008274;28;20248;-79
2023/06/25 10:47:29;;;;;;;4.37;3.97;;;32.60;30.10;;;;;;4994664;28;20217;-69
2023/06/25 10:49:58;;;;;;;7.77;4.07;;;32.70;31.70;;;;;;4975114;28;20232;-73
2023/06/25 10:52:26;;;;;;;4.70;4.03;;;32.80;30.60;;;;;;5002443;28;20211;-72
2023/06/25 10:55:00;;;;;;;4.50;4.00;;;32.80;31.20;;;;;;5005170;28;20197;-72
2023/06/25 10:57:31;;;;;;;4.40;4.00;;;33.00;30.90;;;;;;5011239;28;20204;-71
2023/06/25 11:00:00;;;;;;;5.13;4.57;;;33.10;31.30;;;;;;5008816;28;20204;-70
2023/06/25 11:02:27;;;;;;;3.93;3.63;;;33.10;30.60;;;;;;4993507;28;20646;-72
2023/06/25 11:04:59;;;;;;;4.80;4.20;;;33.20;32.50;;;;;;5010167;28;20213;-72
2023/06/25 11:07:26;;;;;;;4.50;4.10;;;33.40;31.90;;;;;;5011132;28;20198;-71
2023/06/25 11:09:59;;;;;;;4.40;4.00;;;33.40;31.50;;;;;;5013943;28;20693;-72
2023/06/25 11:12:26;;;;;;;4.40;4.00;;;33.60;32.40;;;;;;5012963;28;20273;-71
2023/06/25 11:14:53;;;;;;;5.60;4.60;;;33.60;31.70;;;;;;4994984;28;20793;-72
2023/06/25 11:17:25;;;;;;;5.13;4.13;;;33.60;30.30;;;;;;4994843;28;20301;-72
2023/06/25 11:19:52;;;;;;;6.13;4.70;;;33.70;30.60;;;;;;4996142;28;20191;-71
2023/06/25 11:22:22;;;;;;;5.10;4.27;;;33.80;31.40;;;;;;4995786;28;20228;-73
2023/06/25 11:24:50;;;;;;;4.60;4.20;;;33.90;31.60;;;;;;4994799;28;20286;-72
2023/06/25 11:27:25;;;;;;;5.43;4.93;;;33.90;31.30;;;;;;4995165;28;20200;-72
2023/06/25 11:29:53;;;;;;;6.43;4.83;;;33.80;30.90;;;;;;4994607;28;20213;-71
2023/06/25 11:32:27;;;;;;;5.13;4.60;;;33.90;32.10;;;;;;4994918;28;20553;-71
2023/06/25 11:34:54;;;;;;;4.80;4.40;;;34.00;31.00;;;;;;5004920;28;20225;-72
2023/06/25 11:37:25;;;;;;;4.90;4.50;;;33.90;30.60;;;;;;5012611;28;20253;-72
2023/06/25 11:39:53;;;;;;;5.00;4.60;;;33.90;33.40;;;;;;4994607;28;20219;-70
2023/06/25 11:42:21;;;;;;;5.40;4.70;;;34.00;33.40;;;;;;4994369;28;20570;-71
2023/06/25 11:44:59;;;;;;;5.40;4.90;;;34.10;31.30;;;;;;4995494;28;20227;-71
2023/06/25 11:47:33;;;;;;;6.20;5.60;;;34.10;30.50;;;;;;4994631;28;20210;-71
2023/06/25 11:50:01;;;;;;;4.33;4.00;;;34.10;31.50;;;;;;4999045;28;20214;-72
2023/06/25 11:52:31;;;;;;;5.47;4.97;;;34.20;32.00;;;;;;4995650;28;20235;-71
2023/06/25 11:54:58;;;;;;;4.97;4.53;;;34.20;31.80;;;;;;5013709;28;20406;-73
2023/06/25 11:57:25;;;;;;;5.20;4.70;;;34.30;32.10;;;;;;5014734;28;20206;-71
2023/06/25 11:59:55;;;;;;;5.83;5.33;;;34.30;30.70;;;;;;5011368;28;20225;-73
2023/06/25 12:02:22;;;;;;;5.73;5.13;;;34.20;30.50;;;;;;5006383;28;20210;-73
2023/06/25 12:04:50;;;;;;;5.57;4.97;;;34.10;30.20;;;;;;5014004;28;20237;-73
2023/06/25 12:07:19;;;;;;;6.87;5.70;;;34.10;30.90;;;;;;5014554;28;20210;-71
2023/06/25 12:09:45;;;;;;;5.60;5.10;;;34.20;30.90;;;;;;5013912;28;20223;-71
2023/06/25 12:12:12;;;;;;;5.73;5.23;;;34.20;30.90;;;;;;4994766;28;20698;-73
2023/06/25 12:14:47;;;;;;;5.80;4.60;;;34.30;31.60;;;;;;5010769;28;20237;-74
2023/06/25 12:17:14;;;;;;;5.77;5.27;;;34.40;31.80;;;;;;5012009;28;20649;-72
2023/06/25 12:19:44;;;;;;;5.40;4.90;;;34.50;32.10;;;;;;5001277;28;20202;-72
2023/06/25 12:22:12;;;;;;;5.37;4.93;;;34.50;32.40;;;;;;5014301;28;20226;-71
2023/06/25 12:24:39;;;;;;;5.63;5.10;;;34.60;33.50;;;;;;5002949;28;20298;-74
2023/06/25 12:27:06;;;;;;;4.73;4.33;;;34.70;33.90;;;;;;5007786;28;20687;-71
2023/06/25 12:29:36;;;;;;;4.77;4.37;;;34.80;33.30;;;;;;4993991;28;20223;-73
2023/06/25 12:32:03;;;;;;;5.50;4.97;;;34.90;32.50;;;;;;5005067;28;20209;-72
2023/06/25 12:34:30;;;;;;;5.27;4.77;;;35.00;33.10;;;;;;5013033;28;20230;-72
2023/06/25 12:36:58;;;;;;;4.80;4.40;;;35.10;34.30;;;;;;4996602;28;20210;-73
2023/06/25 12:39:26;;;;;;;5.10;4.47;;;35.20;34.00;;;;;;4994489;28;20230;-71
2023/06/25 12:41:53;;;;;;;4.67;4.23;;;35.20;33.20;;;;;;5002105;28;20231;-73
2023/06/25 12:44:22;;;;;;;5.50;5.00;;;35.20;32.60;;;;;;5015140;28;20305;-71
2023/06/25 12:46:49;;;;;;;6.03;5.43;;;35.20;32.50;;;;;;5026122;28;20301;-74
2023/06/25 12:49:16;;;;;;;5.63;5.13;;;35.30;31.40;;;;;;5005598;28;20229;-72
2023/06/25 12:51:50;;;;;;;5.47;4.97;;;35.20;32.20;;;;;;5013758;28;20545;-71